createdAt,value
2019-02-10T00:06:44.846Z,83.59
2019-02-10T00:09:26.085Z,83.60
2019-02-10T00:11:55.607Z,83.41
2019-02-10T00:14:25.025Z,83.46
2019-02-10T00:16:54.453Z,83.50
2019-02-10T00:19:23.924Z,83.43
2019-02-10T00:21:56.579Z,83.42
2019-02-10T00:24:26.015Z,83.30
2019-02-10T00:29:50.427Z,83.02
2019-02-10T00:32:39.143Z,82.90
2019-02-10T00:35:18.548Z,82.68
2019-02-10T00:37:48.241Z,82.33
2019-02-10T00:40:17.982Z,82.17
2019-02-10T00:42:48.720Z,82.00
2019-02-10T00:47:53.185Z,81.69
2019-02-10T00:50:22.732Z,81.54
2019-02-10T00:52:52.189Z,81.38
2019-02-10T01:00:54.607Z,80.96
2019-02-10T01:03:24.416Z,80.74
2019-02-10T01:05:53.822Z,80.51
2019-02-10T01:11:30.993Z,80.22
2019-02-10T01:14:24.205Z,79.92
2019-02-10T01:16:53.641Z,79.47
2019-02-10T01:19:23.343Z,79.33
2019-02-10T01:21:52.807Z,79.12
2019-02-10T01:24:22.293Z,78.97
2019-02-10T01:26:51.716Z,78.67
2019-02-10T01:29:21.293Z,78.37
2019-02-10T01:31:50.992Z,78.08
2019-02-10T01:34:20.454Z,77.93
2019-02-10T01:36:50.458Z,77.84
2019-02-10T01:39:38.985Z,77.87
2019-02-10T01:42:20.575Z,77.95
2019-02-10T01:55:29.192Z,78.02
2019-02-10T01:58:10.239Z,78.11
2019-02-10T02:00:42.917Z,78.17
2019-02-10T02:03:12.330Z,78.21
2019-02-10T02:06:21.041Z,78.23
2019-02-10T02:14:26.358Z,78.16
2019-02-10T02:17:07.194Z,78.31
2019-02-10T02:22:12.352Z,78.52
2019-02-10T02:24:42.142Z,78.74
2019-02-10T02:27:11.655Z,78.97
2019-02-10T02:29:41.102Z,78.97
2019-02-10T02:32:10.769Z,79.13
2019-02-10T02:34:40.268Z,79.28
2019-02-10T02:37:09.721Z,79.66
2019-02-10T02:39:39.273Z,79.87
2019-02-10T02:42:08.701Z,80.16
2019-02-10T02:47:38.533Z,80.64
2019-02-10T02:50:09.682Z,80.83
2019-02-10T02:52:39.262Z,80.93
2019-02-10T02:55:09.429Z,81.08
2019-02-10T02:57:38.838Z,81.13
2019-02-10T03:00:08.758Z,81.19
2019-02-10T03:02:38.901Z,81.27
2019-02-10T03:05:09.215Z,81.16
2019-02-10T03:07:38.805Z,81.15
2019-02-10T03:10:08.506Z,81.11
2019-02-10T03:12:37.985Z,80.93
2019-02-10T03:15:07.594Z,81.00
2019-02-10T03:17:38.174Z,81.00
2019-02-10T03:20:07.716Z,80.71
2019-02-10T03:22:37.194Z,80.47
2019-02-10T03:25:27.271Z,80.33
2019-02-10T03:27:57.114Z,80.02
2019-02-10T03:30:26.546Z,79.94
2019-02-10T03:32:59.624Z,79.80
2019-02-10T03:38:18.293Z,79.48
2019-02-10T03:40:35.970Z,79.39
2019-02-10T03:43:17.460Z,79.19
2019-02-10T03:45:47.112Z,79.12
2019-02-10T03:48:16.635Z,79.01
2019-02-10T03:50:46.142Z,78.75
2019-02-10T03:53:15.705Z,78.65
2019-02-10T03:55:49.136Z,78.44
2019-02-10T03:58:20.988Z,78.12
2019-02-10T04:00:50.581Z,77.85
2019-02-10T04:03:20.412Z,77.83
2019-02-10T04:05:50.368Z,77.27
2019-02-10T04:08:19.950Z,76.67
2019-02-10T04:10:49.453Z,76.45
2019-02-10T04:13:19.274Z,75.89
2019-02-10T04:15:48.821Z,75.65
2019-02-10T04:18:18.282Z,75.25
2019-02-10T04:20:48.502Z,74.89
2019-02-10T04:23:39.808Z,75.02
2019-02-10T04:28:55.920Z,74.37
2019-02-10T04:31:25.366Z,74.39
2019-02-10T04:33:54.900Z,74.26
2019-02-10T04:36:24.385Z,74.12
2019-02-10T04:38:53.836Z,73.65
2019-02-10T04:41:23.252Z,73.18
2019-02-10T04:44:03.681Z,72.76
2019-02-10T04:49:07.892Z,72.97
2019-02-10T04:51:37.392Z,72.61
2019-02-10T04:54:06.802Z,72.44
2019-02-10T04:59:11.435Z,72.09
2019-02-10T05:04:21.582Z,72.11
2019-02-10T05:06:51.609Z,71.94
2019-02-10T05:09:24.142Z,71.81
2019-02-10T05:11:53.768Z,71.54
2019-02-10T05:14:23.242Z,71.64
2019-02-10T05:16:52.757Z,71.80
2019-02-10T05:19:22.322Z,71.66
2019-02-10T05:21:51.746Z,71.73
2019-02-10T05:24:24.337Z,71.70
2019-02-10T05:26:53.810Z,71.71
2019-02-10T05:29:28.699Z,71.58
2019-02-10T05:31:58.182Z,71.58
2019-02-10T05:34:27.607Z,71.55
2019-02-10T05:36:57.033Z,71.66
2019-02-10T05:39:26.636Z,71.64
2019-02-10T05:42:15.227Z,71.64
2019-02-10T05:44:45.080Z,71.60
2019-02-10T05:47:14.507Z,71.70
2019-02-10T05:49:45.926Z,71.55
2019-02-10T05:52:15.572Z,71.47
2019-02-10T05:54:45.029Z,71.59
2019-02-10T05:57:14.566Z,71.53
2019-02-10T05:59:44.399Z,71.55
2019-02-10T06:02:36.944Z,71.63
2019-02-10T06:05:26.195Z,71.57
2019-02-10T06:08:13.404Z,71.56
2019-02-10T06:10:58.033Z,70.98
2019-02-10T06:13:27.499Z,71.18
2019-02-10T06:15:56.926Z,71.09
2019-02-10T06:18:26.485Z,70.90
2019-02-10T06:20:55.894Z,70.67
2019-02-10T06:23:25.341Z,70.31
2019-02-10T06:26:13.652Z,70.28
2019-02-10T06:28:43.223Z,70.10
2019-02-10T06:31:12.755Z,69.83
2019-02-10T06:33:42.242Z,69.81
2019-02-10T06:36:14.109Z,69.84
2019-02-10T06:41:23.113Z,69.45
2019-02-10T06:43:52.686Z,69.18
2019-02-10T06:46:33.558Z,69.27
2019-02-10T06:49:02.981Z,69.24
2019-02-10T06:51:32.426Z,69.09
2019-02-10T06:54:01.924Z,69.06
2019-02-10T06:56:35.020Z,69.13
2019-02-10T06:59:04.522Z,69.15
2019-02-10T07:04:36.240Z,69.23
2019-02-10T07:07:05.892Z,69.43
2019-02-10T07:09:46.322Z,69.53
2019-02-10T07:12:52.183Z,69.47
2019-02-10T07:16:17.281Z,69.32
2019-02-10T07:19:26.731Z,69.27
2019-02-10T07:21:56.215Z,69.44
2019-02-10T07:24:48.430Z,69.17
2019-02-10T07:27:36.951Z,69.34
2019-02-10T07:37:22.461Z,69.30
2019-02-10T07:40:29.984Z,69.26
2019-02-10T07:43:37.620Z,69.45
2019-02-10T07:46:19.184Z,69.20
2019-02-10T07:49:00.832Z,69.32
2019-02-10T07:51:57.152Z,69.42
2019-02-10T07:55:08.237Z,69.50
2019-02-10T07:57:48.784Z,69.37
2019-02-10T08:01:05.456Z,69.22
2019-02-10T08:06:51.073Z,68.86
2019-02-10T08:09:51.352Z,68.72
2019-02-10T08:12:58.710Z,68.52
2019-02-10T08:16:08.857Z,68.29
2019-02-10T08:19:17.072Z,68.31
2019-02-10T08:25:21.892Z,67.66
2019-02-10T08:28:32.314Z,67.40
2019-02-10T08:31:39.736Z,67.18
2019-02-10T08:34:34.790Z,66.81
2019-02-10T08:37:42.458Z,66.61
2019-02-10T08:40:49.810Z,66.35
2019-02-10T08:43:57.279Z,65.97
2019-02-10T08:47:08.975Z,66.07
2019-02-10T08:50:28.534Z,65.34
2019-02-10T08:53:28.008Z,65.16
2019-02-10T08:55:57.548Z,65.19
2019-02-10T08:58:27.006Z,65.32
2019-02-10T09:03:54.468Z,64.77
2019-02-10T09:06:23.921Z,64.04
2019-02-10T09:08:53.390Z,63.90
2019-02-10T09:11:22.908Z,63.64
2019-02-10T09:13:52.359Z,63.38
2019-02-10T09:16:21.819Z,63.01
2019-02-10T09:18:51.779Z,62.71
2019-02-10T09:21:21.612Z,62.49
2019-02-10T09:23:54.091Z,62.07
2019-02-10T09:26:35.272Z,62.14
2019-02-10T09:29:23.765Z,61.79
2019-02-10T09:31:53.342Z,61.84
2019-02-10T09:34:22.806Z,61.33
2019-02-10T09:36:52.290Z,61.43
2019-02-10T09:39:21.770Z,61.69
2019-02-10T09:41:51.472Z,61.42
2019-02-10T09:47:11.492Z,61.37
2019-02-10T09:49:41.097Z,61.53
2019-02-10T09:52:10.826Z,61.24
2019-02-10T09:54:40.839Z,60.64
2019-02-10T09:57:10.315Z,60.74
2019-02-10T09:59:39.753Z,61.33
2019-02-10T10:02:09.277Z,61.03
2019-02-10T10:04:38.733Z,60.98
2019-02-10T10:07:08.205Z,61.45
2019-02-10T10:09:46.549Z,61.28
2019-02-10T10:12:15.954Z,60.98
2019-02-10T10:14:45.461Z,60.49
2019-02-10T10:17:14.932Z,60.82
2019-02-10T10:19:56.646Z,60.32
2019-02-10T10:22:26.231Z,60.33
2019-02-10T10:24:55.775Z,60.27
2019-02-10T10:27:37.442Z,60.00
2019-02-10T10:33:02.105Z,60.32
2019-02-10T10:35:31.534Z,60.39
2019-02-10T10:38:00.975Z,60.55
2019-02-10T10:43:05.799Z,60.39
2019-02-10T10:45:35.299Z,60.45
2019-02-10T10:48:04.790Z,60.85
2019-02-10T10:50:34.234Z,61.00
2019-02-10T10:53:03.794Z,60.67
2019-02-10T10:55:33.262Z,61.49
2019-02-10T10:58:02.691Z,61.63
2019-02-10T11:03:07.120Z,61.67
2019-02-10T11:05:42.628Z,61.90
2019-02-10T11:08:12.210Z,62.05
2019-02-10T11:10:41.733Z,62.13
2019-02-10T11:13:11.330Z,62.00
2019-02-10T11:15:40.977Z,62.04
2019-02-10T11:18:10.442Z,62.13
2019-02-10T11:20:40.089Z,62.13
2019-02-10T11:23:09.584Z,61.96
2019-02-10T11:25:39.163Z,62.12
2019-02-10T11:28:09.682Z,61.63
2019-02-10T11:30:39.109Z,61.42
2019-02-10T11:33:08.585Z,61.53
2019-02-10T11:35:38.047Z,61.75
2019-02-10T11:38:07.498Z,61.27
2019-02-10T11:40:36.913Z,60.94
2019-02-10T11:43:20.479Z,61.12
2019-02-10T11:45:37.835Z,60.77
2019-02-10T11:48:07.935Z,60.43
2019-02-10T11:50:37.490Z,60.18
2019-02-10T11:53:06.952Z,59.87
2019-02-10T11:55:38.394Z,60.47
2019-02-10T12:00:43.063Z,60.79
2019-02-10T12:03:12.769Z,61.05
2019-02-10T12:05:43.144Z,61.21
2019-02-10T12:08:35.742Z,61.22
2019-02-10T12:11:03.231Z,61.49
2019-02-10T12:13:32.689Z,61.41
2019-02-10T12:16:02.280Z,61.32
2019-02-10T12:18:31.681Z,61.50
2019-02-10T12:21:01.155Z,61.30
2019-02-10T12:23:30.967Z,61.55
2019-02-10T12:26:00.534Z,61.47
2019-02-10T12:28:30.040Z,61.41
2019-02-10T12:31:00.106Z,61.57
2019-02-10T12:33:29.526Z,61.98
2019-02-10T12:35:59.037Z,62.15
2019-02-10T12:38:28.590Z,62.30
2019-02-10T12:40:58.038Z,62.29
2019-02-10T12:43:27.489Z,62.68
2019-02-10T12:46:02.800Z,62.64
2019-02-10T12:51:21.105Z,63.01
2019-02-10T12:53:50.685Z,63.20
2019-02-10T12:56:23.083Z,63.07
2019-02-10T12:58:52.640Z,62.69
2019-02-10T13:01:22.313Z,63.03
2019-02-10T13:03:51.729Z,62.92
2019-02-10T13:06:40.205Z,63.23
2019-02-10T13:12:01.689Z,64.18
2019-02-10T13:14:31.120Z,64.54
2019-02-10T13:17:05.568Z,64.59
2019-02-10T13:19:35.069Z,64.78
2019-02-10T13:22:04.541Z,64.84
2019-02-10T13:24:33.967Z,64.80
2019-02-10T13:27:29.625Z,65.08
2019-02-10T13:29:59.261Z,65.13
2019-02-10T13:32:28.702Z,65.37
2019-02-10T13:34:58.247Z,65.51
2019-02-10T13:37:27.692Z,65.75
2019-02-10T13:39:57.114Z,65.72
2019-02-10T13:42:26.797Z,65.33
2019-02-10T13:44:56.331Z,65.23
2019-02-10T13:50:35.255Z,64.90
2019-02-10T13:53:05.410Z,65.32
2019-02-10T13:55:34.811Z,65.41
2019-02-10T13:58:04.469Z,65.23
2019-02-10T14:00:33.941Z,65.42
2019-02-10T14:03:09.141Z,65.67
2019-02-10T14:05:38.606Z,65.44
2019-02-10T14:08:08.061Z,65.39
2019-02-10T14:10:37.516Z,65.34
2019-02-10T14:13:06.974Z,65.50
2019-02-10T14:15:36.419Z,65.68
2019-02-10T14:18:05.856Z,66.30
2019-02-10T14:20:35.315Z,66.79
2019-02-10T14:23:04.770Z,67.02
2019-02-10T14:25:34.254Z,67.25
2019-02-10T14:28:03.673Z,67.50
2019-02-10T14:30:33.106Z,67.81
2019-02-10T14:33:02.708Z,68.26
2019-02-10T14:35:32.153Z,68.49
2019-02-10T14:38:01.722Z,68.91
2019-02-10T14:40:33.798Z,69.33
2019-02-10T14:43:02.966Z,69.83
2019-02-10T14:45:32.388Z,70.43
2019-02-10T14:48:01.996Z,70.68
2019-02-10T14:50:31.420Z,71.13
2019-02-10T14:53:00.935Z,71.54
2019-02-10T14:55:42.282Z,71.93
2019-02-10T14:58:14.494Z,72.14
2019-02-10T15:00:44.157Z,72.47
2019-02-10T15:03:14.728Z,72.58
2019-02-10T15:05:44.305Z,72.63
2019-02-10T15:08:16.516Z,72.79
2019-02-10T15:11:05.011Z,72.85
2019-02-10T15:13:34.514Z,72.78
2019-02-10T15:16:22.454Z,72.56
2019-02-10T15:18:51.909Z,72.50
2019-02-10T15:21:21.616Z,72.39
2019-02-10T15:23:53.904Z,72.28
2019-02-10T15:26:23.333Z,72.33
2019-02-10T15:28:52.779Z,72.25
2019-02-10T15:31:22.265Z,72.31
2019-02-10T15:33:51.723Z,72.42
2019-02-10T15:36:35.392Z,72.48
2019-02-10T15:39:26.339Z,72.46
2019-02-10T15:42:09.470Z,72.60
2019-02-10T15:47:32.712Z,72.89
2019-02-10T15:50:03.782Z,72.95
2019-02-10T15:52:33.374Z,73.06
2019-02-10T15:57:37.464Z,73.41
2019-02-10T16:00:09.850Z,73.69
2019-02-10T16:02:39.278Z,73.93
2019-02-10T16:05:08.774Z,74.27
2019-02-10T16:10:13.642Z,74.66
2019-02-10T16:15:19.539Z,74.86
2019-02-10T16:17:49.383Z,74.94
2019-02-10T16:20:20.547Z,75.04
2019-02-10T16:22:53.074Z,74.96
2019-02-10T16:25:22.527Z,74.89
2019-02-10T16:27:54.275Z,74.78
2019-02-10T16:30:23.765Z,74.63
2019-02-10T16:32:53.288Z,74.47
2019-02-10T16:35:25.187Z,74.72
2019-02-10T16:40:29.183Z,75.29
2019-02-10T16:43:13.782Z,75.52
2019-02-10T16:45:43.307Z,75.83
2019-02-10T16:48:12.902Z,76.04
2019-02-10T16:50:42.362Z,76.28
2019-02-10T16:53:13.885Z,76.54
2019-02-10T16:55:43.387Z,76.65
2019-02-10T16:58:15.218Z,76.81
2019-02-10T17:00:44.654Z,76.97
2019-02-10T17:03:48.561Z,77.00
2019-02-10T17:09:13.142Z,76.89
2019-02-10T17:17:26.086Z,76.91
2019-02-10T17:19:55.550Z,76.96
2019-02-10T17:22:25.007Z,77.00
2019-02-10T17:24:54.538Z,76.93
2019-02-10T17:27:25.541Z,77.20
2019-02-10T17:29:55.079Z,77.39
2019-02-10T17:32:24.506Z,77.88
2019-02-10T17:34:53.971Z,77.94
2019-02-10T17:37:23.423Z,78.28
2019-02-10T17:39:52.844Z,78.50
2019-02-10T17:42:22.354Z,78.72
2019-02-10T17:44:51.923Z,78.83
2019-02-10T17:47:21.523Z,79.23
2019-02-10T17:49:53.264Z,79.44
2019-02-10T17:52:22.832Z,79.65
2019-02-10T17:54:52.323Z,79.82
2019-02-10T17:57:21.885Z,79.89
2019-02-10T17:59:53.838Z,80.25
2019-02-10T18:02:23.373Z,80.45
2019-02-10T18:04:52.902Z,80.53
2019-02-10T18:07:22.346Z,80.52
2019-02-10T18:09:56.598Z,80.45
2019-02-10T18:12:26.114Z,80.48
2019-02-10T18:15:14.541Z,80.99
2019-02-10T18:18:03.046Z,80.76
2019-02-10T18:20:51.495Z,80.71
2019-02-10T18:23:39.942Z,80.98
2019-02-10T18:26:28.211Z,80.78
2019-02-10T18:29:16.559Z,80.69
2019-02-10T18:31:52.747Z,80.59
2019-02-10T18:34:28.636Z,80.54
2019-02-10T18:37:17.356Z,80.45
2019-02-10T18:40:06.274Z,80.20
2019-02-10T18:42:54.612Z,80.06
2019-02-10T18:45:42.934Z,80.06
2019-02-10T18:48:31.258Z,79.94
2019-02-10T18:51:11.968Z,79.82
2019-02-10T18:54:00.330Z,79.79
2019-02-10T18:56:48.824Z,79.81
2019-02-10T18:59:37.272Z,79.80
2019-02-10T19:02:26.119Z,79.70
2019-02-10T19:05:07.009Z,79.58
2019-02-10T19:08:20.366Z,79.49
2019-02-10T19:11:07.415Z,79.42
2019-02-10T19:13:55.856Z,79.54
2019-02-10T19:16:44.194Z,79.52
2019-02-10T19:19:32.858Z,79.55
2019-02-10T19:22:21.227Z,79.53
2019-02-10T19:25:11.493Z,79.43
2019-02-10T19:28:01.810Z,79.36
2019-02-10T19:30:50.163Z,79.15
2019-02-10T19:33:33.268Z,79.09
2019-02-10T19:36:21.734Z,78.94
2019-02-10T19:39:10.858Z,78.81
2019-02-10T19:41:59.378Z,78.67
2019-02-10T19:47:28.963Z,78.49
2019-02-10T19:50:17.355Z,78.54
2019-02-10T19:53:06.224Z,78.51
2019-02-10T19:56:15.478Z,78.60
2019-02-10T19:59:06.988Z,78.69
2019-02-10T20:07:34.714Z,79.00
2019-02-10T20:10:27.485Z,78.96
2019-02-10T20:13:20.058Z,78.96
2019-02-10T20:16:09.804Z,78.97
2019-02-10T20:18:58.105Z,79.00
2019-02-10T20:21:46.429Z,79.08
2019-02-10T20:24:34.907Z,79.11
2019-02-10T20:30:19.878Z,79.13
2019-02-10T20:33:08.351Z,79.04
2019-02-10T20:35:56.746Z,79.07
2019-02-10T20:38:45.265Z,79.24
2019-02-10T20:41:33.693Z,79.83
2019-02-10T20:44:41.288Z,80.75
2019-02-10T20:47:29.720Z,80.85
2019-02-10T20:53:09.327Z,80.91
2019-02-10T20:55:46.265Z,80.91
2019-02-10T20:58:26.457Z,81.02
2019-02-10T21:01:15.893Z,80.96
2019-02-10T21:03:52.725Z,81.01
2019-02-10T21:06:33.141Z,82.04
2019-02-10T21:09:21.651Z,82.24
2019-02-10T21:12:20.333Z,82.85
2019-02-10T21:15:15.700Z,83.18
2019-02-10T21:18:04.022Z,83.47
2019-02-10T21:20:52.515Z,84.06
2019-02-10T21:23:41.246Z,84.42
2019-02-10T21:26:18.287Z,84.81
2019-02-10T21:29:06.581Z,84.84
2019-02-10T21:31:54.875Z,85.15
2019-02-10T21:34:43.529Z,84.68
2019-02-10T21:37:23.832Z,84.65
2019-02-10T21:40:40.141Z,85.86
2019-02-10T21:43:31.601Z,85.86
2019-02-10T21:46:20.218Z,85.71
2019-02-10T21:49:09.671Z,85.10
2019-02-10T21:51:39.123Z,84.74
2019-02-10T21:54:27.496Z,84.61
2019-02-10T21:56:57.079Z,84.99
2019-02-10T22:02:27.681Z,85.04
2019-02-10T22:04:57.091Z,84.48
2019-02-10T22:07:26.756Z,84.26
2019-02-10T22:09:56.228Z,83.71
2019-02-10T22:12:25.771Z,82.67
2019-02-10T22:17:43.837Z,81.97
2019-02-10T22:20:13.522Z,82.94
2019-02-10T22:23:02.028Z,84.88
2019-02-10T22:28:20.299Z,84.49
2019-02-10T22:30:51.458Z,84.49
2019-02-10T22:33:25.987Z,83.81
2019-02-10T22:35:53.130Z,84.01
2019-02-10T22:38:22.831Z,83.11
2019-02-10T22:41:11.380Z,83.11
2019-02-10T22:46:34.948Z,82.41
2019-02-10T22:49:04.381Z,81.92
2019-02-10T22:51:33.838Z,81.74
2019-02-10T22:56:38.051Z,81.82
2019-02-10T22:59:19.702Z,81.69
2019-02-10T23:01:56.852Z,81.68
2019-02-10T23:04:26.332Z,81.26
2019-02-10T23:06:55.737Z,81.27
2019-02-10T23:09:25.204Z,80.96
2019-02-10T23:11:54.694Z,80.22
2019-02-10T23:14:24.134Z,80.22
2019-02-10T23:17:12.602Z,80.41
2019-02-10T23:19:42.167Z,80.34
2019-02-10T23:22:11.768Z,80.34
2019-02-10T23:24:41.363Z,80.30
2019-02-10T23:27:10.761Z,80.04
2019-02-10T23:29:40.197Z,80.04
2019-02-10T23:32:09.637Z,80.10
2019-02-10T23:37:27.615Z,80.13
2019-02-10T23:39:57.080Z,79.95
2019-02-10T23:42:26.494Z,79.87
2019-02-10T23:44:55.993Z,79.88
2019-02-10T23:47:25.429Z,79.90
2019-02-10T23:50:04.101Z,80.15
2019-02-10T23:52:33.555Z,80.30
2019-02-10T23:55:03.204Z,80.33
2019-02-10T23:57:51.713Z,80.37
